createdAt,value
2019-04-06T00:01:13.993Z,76.07
2019-04-06T00:03:43.325Z,72.43
2019-04-06T00:06:12.660Z,73.90
2019-04-06T00:08:42.021Z,80.28
2019-04-06T00:11:13.057Z,69.50
2019-04-06T00:13:42.412Z,70.72
2019-04-06T00:16:11.685Z,79.30
2019-04-06T00:18:41.019Z,77.07
2019-04-06T00:21:10.376Z,89.63
2019-04-06T00:23:39.707Z,71.27
2019-04-06T00:26:09.058Z,72.05
2019-04-06T00:28:38.411Z,65.20
2019-04-06T00:31:09.386Z,80.37
2019-04-06T00:33:38.731Z,82.55
2019-04-06T00:36:08.001Z,88.17
2019-04-06T00:38:37.418Z,113.35
2019-04-06T00:41:06.763Z,122.97
2019-04-06T00:43:36.119Z,103.83
2019-04-06T00:46:05.444Z,118.87
2019-04-06T00:48:34.793Z,131.13
2019-04-06T00:51:04.137Z,104.20
2019-04-06T00:53:33.481Z,104.45
2019-04-06T00:56:02.848Z,96.87
2019-04-06T00:58:32.173Z,137.83
2019-04-06T01:01:14.050Z,104.90
2019-04-06T01:03:43.395Z,108.35
2019-04-06T01:06:12.813Z,94.60
2019-04-06T01:08:42.155Z,97.07
2019-04-06T01:11:11.496Z,82.37
2019-04-06T01:13:40.835Z,84.62
2019-04-06T01:16:10.191Z,82.45
2019-04-06T01:18:39.531Z,81.82
2019-04-06T01:21:08.871Z,84.07
2019-04-06T01:23:38.223Z,80.20
2019-04-06T01:26:07.907Z,67.10
2019-04-06T01:28:57.711Z,75.70
2019-04-06T01:31:27.061Z,103.40
2019-04-06T01:33:59.147Z,82.70
2019-04-06T01:36:34.836Z,74.50
2019-04-06T01:39:44.330Z,80.95
2019-04-06T01:42:13.669Z,77.80
2019-04-06T01:44:42.999Z,81.63
2019-04-06T01:47:12.352Z,89.85
2019-04-06T01:49:41.696Z,90.45
2019-04-06T01:52:11.040Z,79.55
2019-04-06T01:54:40.379Z,81.33
2019-04-06T01:57:09.716Z,90.30
2019-04-06T01:59:39.059Z,87.72
2019-04-06T02:04:49.169Z,85.83
2019-04-06T02:07:18.475Z,89.77
2019-04-06T02:09:47.817Z,94.58
2019-04-06T02:12:17.176Z,92.25
2019-04-06T02:14:46.779Z,91.55
2019-04-06T02:17:16.261Z,89.75
2019-04-06T02:19:45.555Z,91.70
2019-04-06T02:22:14.891Z,90.00
2019-04-06T02:24:44.343Z,91.53
2019-04-06T02:27:13.666Z,85.90
2019-04-06T02:29:43.010Z,94.50
2019-04-06T02:32:31.481Z,88.35
2019-04-06T02:35:19.939Z,91.12
2019-04-06T02:40:47.889Z,103.38
2019-04-06T02:43:36.397Z,92.00
2019-04-06T02:46:06.057Z,89.25
2019-04-06T02:48:35.392Z,81.67
2019-04-06T02:51:04.812Z,92.70
2019-04-06T02:53:34.263Z,94.37
2019-04-06T02:56:03.827Z,90.20
2019-04-06T02:58:44.349Z,94.15
2019-04-06T03:01:13.690Z,121.65
2019-04-06T03:03:43.078Z,90.62
2019-04-06T03:06:12.497Z,91.80
2019-04-06T03:08:41.798Z,105.55
2019-04-06T03:11:11.431Z,97.60
2019-04-06T03:13:41.043Z,93.97
2019-04-06T03:16:17.067Z,87.92
2019-04-06T03:18:52.336Z,102.30
2019-04-06T03:21:21.677Z,94.90
2019-04-06T03:23:52.427Z,98.85
2019-04-06T03:26:27.552Z,105.27
2019-04-06T03:31:58.410Z,90.10
2019-04-06T03:34:40.574Z,90.25
2019-04-06T03:37:10.129Z,91.40
2019-04-06T03:39:39.784Z,98.22
2019-04-06T03:42:11.459Z,103.42
2019-04-06T03:44:46.993Z,101.50
2019-04-06T03:47:16.345Z,94.72
2019-04-06T03:49:45.679Z,95.22
2019-04-06T03:52:15.090Z,97.85
2019-04-06T03:55:14.548Z,145.05
2019-04-06T03:57:43.939Z,103.42
2019-04-06T04:00:13.225Z,109.05
2019-04-06T04:02:42.608Z,89.47
2019-04-06T04:08:13.443Z,96.45
2019-04-06T04:10:43.296Z,99.37
2019-04-06T04:13:19.490Z,95.28
2019-04-06T04:15:56.771Z,97.90
2019-04-06T04:18:35.177Z,95.42
2019-04-06T04:21:10.485Z,97.08
2019-04-06T04:23:39.832Z,96.63
2019-04-06T04:26:09.169Z,105.97
2019-04-06T04:28:38.514Z,106.35
2019-04-06T04:31:27.375Z,102.12
2019-04-06T04:33:56.679Z,92.80
2019-04-06T04:36:25.990Z,90.83
2019-04-06T04:38:55.338Z,98.60
2019-04-06T04:41:24.667Z,112.12
2019-04-06T04:44:05.979Z,86.63
2019-04-06T04:46:35.334Z,98.15
2019-04-06T04:49:04.939Z,93.17
2019-04-06T04:51:41.048Z,93.12
2019-04-06T04:54:10.384Z,94.62
2019-04-06T04:56:39.733Z,102.25
2019-04-06T04:59:09.069Z,93.60
2019-04-06T05:01:38.438Z,105.05
2019-04-06T05:04:27.098Z,128.72
2019-04-06T05:06:56.479Z,108.75
2019-04-06T05:09:25.867Z,109.90
2019-04-06T05:11:55.216Z,107.32
2019-04-06T05:15:03.956Z,115.12
2019-04-06T05:17:33.309Z,110.08
2019-04-06T05:20:02.905Z,114.25
2019-04-06T05:22:37.758Z,114.70
2019-04-06T05:28:40.994Z,110.52
2019-04-06T05:31:10.404Z,107.97
2019-04-06T05:33:39.749Z,126.80
2019-04-06T05:36:09.100Z,109.27
2019-04-06T05:38:38.660Z,101.58
2019-04-06T05:41:15.155Z,95.57
2019-04-06T05:44:03.835Z,118.17
2019-04-06T05:46:46.089Z,104.35
2019-04-06T05:49:15.437Z,109.22
2019-04-06T05:51:44.825Z,131.70
2019-04-06T05:54:14.372Z,121.67
2019-04-06T05:56:43.738Z,114.47
2019-04-06T05:59:13.085Z,100.90
2019-04-06T06:01:42.632Z,105.47
2019-04-06T06:04:32.679Z,102.45
2019-04-06T06:07:02.001Z,114.30
2019-04-06T06:09:31.272Z,92.82
2019-04-06T06:12:00.617Z,97.53
2019-04-06T06:14:29.973Z,96.12
2019-04-06T06:16:59.332Z,90.53
2019-04-06T06:19:28.919Z,97.00
2019-04-06T06:21:58.266Z,116.55
2019-04-06T06:24:27.600Z,126.10
2019-04-06T06:26:56.948Z,101.97
2019-04-06T06:29:26.285Z,113.00
2019-04-06T06:31:55.632Z,112.12
2019-04-06T06:34:24.994Z,109.97
2019-04-06T06:37:06.740Z,84.90
2019-04-06T06:39:36.040Z,103.20
2019-04-06T06:42:05.366Z,109.85
2019-04-06T06:44:34.709Z,112.00
2019-04-06T06:47:04.064Z,102.47
2019-04-06T06:49:33.604Z,101.83
2019-04-06T06:52:02.946Z,101.77
2019-04-06T06:54:32.284Z,111.57
2019-04-06T06:57:01.696Z,88.82
2019-04-06T06:59:31.042Z,110.60
2019-04-06T07:02:00.391Z,102.32
2019-04-06T07:04:30.104Z,99.23
2019-04-06T07:06:59.362Z,95.60
2019-04-06T07:09:28.698Z,89.67
2019-04-06T07:11:58.254Z,88.40
2019-04-06T07:14:37.422Z,104.60
2019-04-06T07:17:06.804Z,108.80
2019-04-06T07:19:36.109Z,111.07
2019-04-06T07:22:05.490Z,98.30
2019-04-06T07:24:34.786Z,92.90
2019-04-06T07:27:04.090Z,89.43
2019-04-06T07:29:33.503Z,104.67
2019-04-06T07:32:02.853Z,106.03
2019-04-06T07:34:32.099Z,98.53
2019-04-06T07:37:01.492Z,103.03
2019-04-06T07:39:30.815Z,93.43
2019-04-06T07:42:00.237Z,98.63
2019-04-06T07:44:30.222Z,101.17
2019-04-06T07:47:06.653Z,136.63
2019-04-06T07:49:36.081Z,106.03
2019-04-06T07:52:05.732Z,95.83
2019-04-06T07:54:42.494Z,101.43
2019-04-06T07:57:18.926Z,111.37
2019-04-06T07:59:48.268Z,106.90
2019-04-06T08:02:17.619Z,104.57
2019-04-06T08:04:46.946Z,99.67
2019-04-06T08:07:28.195Z,108.17
2019-04-06T08:09:57.529Z,103.43
2019-04-06T08:12:26.983Z,111.23
2019-04-06T08:14:57.537Z,106.37
2019-04-06T08:17:36.859Z,98.13
2019-04-06T08:23:40.245Z,103.23
2019-04-06T08:26:09.710Z,99.10
2019-04-06T08:28:39.469Z,100.90
2019-04-06T08:31:09.046Z,99.93
2019-04-06T08:33:38.773Z,114.77
2019-04-06T08:36:08.408Z,103.13
2019-04-06T08:38:37.859Z,100.40
2019-04-06T08:41:07.198Z,108.47
2019-04-06T08:43:36.607Z,108.33
2019-04-06T08:46:05.941Z,110.40
2019-04-06T08:48:35.279Z,116.83
2019-04-06T08:51:04.812Z,107.60
2019-04-06T08:53:34.301Z,100.20
2019-04-06T08:56:24.222Z,102.77
2019-04-06T08:58:53.569Z,97.63
2019-04-06T09:01:42.293Z,98.03
2019-04-06T09:04:12.001Z,108.63
2019-04-06T09:06:41.768Z,103.43
2019-04-06T09:09:22.093Z,108.80
2019-04-06T09:11:51.429Z,110.00
2019-04-06T09:14:20.881Z,100.40
2019-04-06T09:16:50.700Z,114.83
2019-04-06T09:19:20.044Z,104.97
2019-04-06T09:21:49.483Z,106.87
2019-04-06T09:24:19.218Z,107.23
2019-04-06T09:26:48.924Z,102.97
2019-04-06T09:29:23.893Z,111.33
2019-04-06T09:31:54.953Z,139.87
2019-04-06T09:34:24.281Z,103.17
2019-04-06T09:37:06.176Z,117.87
2019-04-06T09:39:35.453Z,106.13
2019-04-06T09:48:45.937Z,99.77
2019-04-06T09:51:34.337Z,104.43
2019-04-06T09:54:42.264Z,100.03
2019-04-06T09:57:30.781Z,109.80
2019-04-06T10:00:31.176Z,98.20
2019-04-06T10:03:14.716Z,99.27
2019-04-06T10:06:03.498Z,95.53
2019-04-06T10:09:11.330Z,105.67
2019-04-06T10:11:59.787Z,107.17
2019-04-06T10:17:57.332Z,99.57
2019-04-06T10:20:45.782Z,104.47
2019-04-06T10:23:34.241Z,107.87
2019-04-06T10:26:42.265Z,129.83
2019-04-06T10:29:48.877Z,98.70
2019-04-06T10:35:21.092Z,115.27
2019-04-06T10:43:45.264Z,100.60
2019-04-06T10:46:53.050Z,101.23
2019-04-06T10:49:53.753Z,104.13
2019-04-06T10:52:42.203Z,98.73
2019-04-06T10:55:30.659Z,99.80
2019-04-06T11:01:34.617Z,81.57
2019-04-06T11:04:17.376Z,72.97
2019-04-06T11:07:02.763Z,85.00
2019-04-06T11:09:51.704Z,72.87
2019-04-06T11:12:40.078Z,69.63
2019-04-06T11:15:28.763Z,81.83
2019-04-06T11:18:17.216Z,78.70
2019-04-06T11:21:25.416Z,59.33
2019-04-06T11:24:11.896Z,62.33
2019-04-06T11:26:57.974Z,65.47
2019-04-06T11:29:46.593Z,59.77
2019-04-06T11:32:54.332Z,61.23
2019-04-06T11:38:41.767Z,62.20
2019-04-06T11:41:30.314Z,62.20
2019-04-06T11:44:31.115Z,55.03
2019-04-06T11:47:19.710Z,52.80
2019-04-06T11:50:08.241Z,53.37
2019-04-06T11:52:56.612Z,52.37
2019-04-06T11:56:04.568Z,55.93
2019-04-06T11:58:53.010Z,64.13
2019-04-06T12:01:41.715Z,58.97
2019-04-06T12:04:30.401Z,58.90
2019-04-06T12:07:18.860Z,56.10
2019-04-06T12:10:07.316Z,53.20
2019-04-06T12:12:50.942Z,53.97
2019-04-06T12:15:34.621Z,49.27
2019-04-06T12:27:25.810Z,44.70
2019-04-06T12:30:14.282Z,46.73
2019-04-06T12:33:02.771Z,46.30
2019-04-06T12:35:51.258Z,45.57
2019-04-06T12:41:19.351Z,43.13
2019-04-06T12:50:02.878Z,42.20
2019-04-06T12:55:47.425Z,45.73
2019-04-06T12:58:35.898Z,42.13
2019-04-06T13:04:04.676Z,42.03
2019-04-06T13:06:53.040Z,41.97
2019-04-06T13:09:41.500Z,44.70
2019-04-06T13:15:11.992Z,37.73
2019-04-06T13:18:00.464Z,40.73
2019-04-06T13:20:48.975Z,39.00
2019-04-06T13:26:33.373Z,37.70
2019-04-06T13:29:21.824Z,36.90
2019-04-06T13:32:10.453Z,37.97
2019-04-06T13:34:59.164Z,41.40
2019-04-06T13:40:27.467Z,35.13
2019-04-06T13:43:16.203Z,36.33
2019-04-06T13:46:04.712Z,35.43
2019-04-06T13:52:02.201Z,38.23
2019-04-06T13:54:50.752Z,37.37
2019-04-06T13:57:39.183Z,37.30
2019-04-06T14:00:27.931Z,38.17
2019-04-06T14:03:16.312Z,35.17
2019-04-06T14:06:04.793Z,37.67
2019-04-06T14:11:33.435Z,36.60
2019-04-06T14:14:21.880Z,41.43
2019-04-06T14:17:10.336Z,41.10
2019-04-06T14:19:58.785Z,33.83
2019-04-06T14:22:49.006Z,34.83
2019-04-06T14:25:56.790Z,32.13
2019-04-06T14:28:45.705Z,40.33
2019-04-06T14:31:34.290Z,37.00
2019-04-06T14:34:23.035Z,33.87
2019-04-06T14:45:30.006Z,33.57
2019-04-06T14:48:18.496Z,34.17
2019-04-06T14:51:07.347Z,33.07
2019-04-06T14:56:51.365Z,37.87
2019-04-06T14:59:39.901Z,34.70
2019-04-06T15:05:09.447Z,33.47
2019-04-06T15:07:57.903Z,32.10
2019-04-06T15:10:46.592Z,37.00
2019-04-06T15:13:35.373Z,37.23
2019-04-06T15:19:19.412Z,33.37
2019-04-06T15:27:44.054Z,49.23
2019-04-06T15:33:12.521Z,33.83
2019-04-06T15:36:01.721Z,31.57
2019-04-06T15:38:50.192Z,31.90
2019-04-06T15:41:38.845Z,31.47
2019-04-06T15:44:27.570Z,28.53
2019-04-06T15:47:15.983Z,32.60
2019-04-06T15:50:04.782Z,40.43
2019-04-06T15:52:53.229Z,33.87
2019-04-06T15:55:41.726Z,29.47
2019-04-06T15:58:30.582Z,27.47
2019-04-06T16:01:19.341Z,29.83
2019-04-06T16:04:07.761Z,38.93
2019-04-06T16:06:56.331Z,28.93
2019-04-06T16:10:04.625Z,31.50
2019-04-06T16:12:53.077Z,25.70
2019-04-06T16:18:37.548Z,31.80
2019-04-06T16:21:25.997Z,32.00
2019-04-06T16:24:14.599Z,29.83
2019-04-06T16:32:39.202Z,37.37
2019-04-06T16:35:27.896Z,31.00
2019-04-06T16:38:17.005Z,29.83
2019-04-06T16:41:05.448Z,35.43
2019-04-06T16:43:54.086Z,32.23
2019-04-06T16:46:42.580Z,35.73
2019-04-06T16:49:31.380Z,29.07
2019-04-06T16:52:20.253Z,33.00
2019-04-06T16:55:09.116Z,37.20
2019-04-06T16:57:57.566Z,28.60
2019-04-06T17:03:41.484Z,30.53
2019-04-06T17:06:30.394Z,27.17
2019-04-06T17:09:18.864Z,33.63
2019-04-06T17:12:07.545Z,31.10
2019-04-06T17:14:56.244Z,33.70
2019-04-06T17:20:40.561Z,32.87
2019-04-06T17:26:38.115Z,33.47
2019-04-06T17:29:26.632Z,29.20
2019-04-06T17:32:12.436Z,47.23
2019-04-06T17:35:01.370Z,28.90
2019-04-06T17:37:49.948Z,31.70
2019-04-06T17:40:38.455Z,33.27
2019-04-06T17:43:27.014Z,32.93
2019-04-06T17:49:56.416Z,38.10
2019-04-06T17:55:41.429Z,39.13
2019-04-06T17:58:42.394Z,50.83
2019-04-06T18:01:27.828Z,39.70
2019-04-06T18:04:10.672Z,37.47
2019-04-06T18:06:59.153Z,41.60
2019-04-06T18:12:39.765Z,33.40
2019-04-06T18:15:21.612Z,48.30
2019-04-06T18:17:50.982Z,41.33
2019-04-06T18:20:20.347Z,39.10
2019-04-06T18:22:50.182Z,43.30
2019-04-06T18:25:46.151Z,54.90
2019-04-06T18:28:34.968Z,52.17
2019-04-06T18:31:41.520Z,61.37
2019-04-06T18:34:11.293Z,49.00
2019-04-06T18:37:26.024Z,58.80
2019-04-06T18:42:51.906Z,46.83
2019-04-06T18:48:23.640Z,56.90
2019-04-06T18:51:00.248Z,50.97
2019-04-06T18:53:29.853Z,62.83
2019-04-06T18:55:59.281Z,46.90
2019-04-06T18:58:28.803Z,44.23
2019-04-06T19:00:58.507Z,60.83
2019-04-06T19:03:47.330Z,45.40
2019-04-06T19:06:16.746Z,56.87
2019-04-06T19:08:46.178Z,64.00
2019-04-06T19:11:15.647Z,53.63
2019-04-06T19:13:45.533Z,52.50
2019-04-06T19:16:35.514Z,57.17
2019-04-06T19:22:38.788Z,49.47
2019-04-06T19:25:53.410Z,59.40
2019-04-06T19:28:23.140Z,50.10
2019-04-06T19:31:13.506Z,53.30
2019-04-06T19:33:54.143Z,48.20
2019-04-06T19:36:23.769Z,52.33
2019-04-06T19:38:53.241Z,46.37
2019-04-06T19:41:22.986Z,52.07
2019-04-06T19:43:58.281Z,41.50
2019-04-06T19:46:34.345Z,44.30
2019-04-06T19:49:03.878Z,47.10
2019-04-06T19:51:33.415Z,48.73
2019-04-06T19:54:09.022Z,49.40
2019-04-06T19:56:38.630Z,45.97
2019-04-06T19:59:27.733Z,55.23
2019-04-06T20:01:57.523Z,47.63
2019-04-06T20:04:47.530Z,39.77
2019-04-06T20:07:16.995Z,51.60
2019-04-06T20:09:46.534Z,51.13
2019-04-06T20:12:16.023Z,57.63
2019-04-06T20:14:45.616Z,47.47
2019-04-06T20:17:15.146Z,47.93
2019-04-06T20:19:45.430Z,48.83
2019-04-06T20:22:35.299Z,52.87
2019-04-06T20:28:38.956Z,52.10
2019-04-06T20:31:15.199Z,51.20
2019-04-06T20:33:50.154Z,51.60
2019-04-06T20:36:35.216Z,52.30
2019-04-06T20:39:11.369Z,51.43
2019-04-06T20:41:40.726Z,50.70
2019-04-06T20:44:10.057Z,46.13
2019-04-06T20:46:39.826Z,57.13
2019-04-06T20:49:15.873Z,57.93
2019-04-06T20:51:45.521Z,54.03
2019-04-06T20:54:26.190Z,59.50
2019-04-06T20:57:01.923Z,59.60
2019-04-06T20:59:31.631Z,50.57
2019-04-06T21:02:21.851Z,61.30
2019-04-06T21:04:51.279Z,57.10
2019-04-06T21:10:43.210Z,55.00
2019-04-06T21:13:12.694Z,66.23
2019-04-06T21:15:43.461Z,60.90
2019-04-06T21:18:19.069Z,63.50
2019-04-06T21:20:48.412Z,66.33
2019-04-06T21:23:18.139Z,64.53
2019-04-06T21:25:54.977Z,55.00
2019-04-06T21:28:31.129Z,55.17
2019-04-06T21:31:00.447Z,66.87
2019-04-06T21:33:29.816Z,59.30
2019-04-06T21:35:59.265Z,67.77
2019-04-06T21:38:28.587Z,58.83
2019-04-06T21:40:58.240Z,61.23
2019-04-06T21:43:34.440Z,63.10
2019-04-06T21:46:03.957Z,63.97
2019-04-06T21:48:33.461Z,91.17
2019-04-06T21:51:03.143Z,65.47
2019-04-06T21:53:32.776Z,60.17
2019-04-06T21:56:07.025Z,59.10
2019-04-06T21:58:39.242Z,51.90
2019-04-06T22:01:55.798Z,58.33
2019-04-06T22:04:26.712Z,56.93
2019-04-06T22:07:27.744Z,59.97
2019-04-06T22:09:57.084Z,65.10
2019-04-06T22:12:26.330Z,60.57
2019-04-06T22:14:55.673Z,58.07
2019-04-06T22:17:25.231Z,59.80
2019-04-06T22:20:14.021Z,63.73
2019-04-06T22:23:14.086Z,61.90
2019-04-06T22:25:50.581Z,64.37
2019-04-06T22:28:19.900Z,91.00
2019-04-06T22:30:49.681Z,67.53
2019-04-06T22:33:25.517Z,65.93
2019-04-06T22:35:55.067Z,60.20
2019-04-06T22:38:44.998Z,67.70
2019-04-06T22:41:14.367Z,62.63
2019-04-06T22:43:44.572Z,65.27
2019-04-06T22:46:20.282Z,61.10
2019-04-06T22:48:49.574Z,70.37
2019-04-06T22:51:18.857Z,71.63
2019-04-06T22:53:49.179Z,60.27
2019-04-06T22:56:38.449Z,62.10
2019-04-06T22:59:07.675Z,68.87
2019-04-06T23:01:56.096Z,73.63
2019-04-06T23:10:01.105Z,68.80
2019-04-06T23:12:51.087Z,93.63
2019-04-06T23:15:20.999Z,70.13
2019-04-06T23:17:56.792Z,77.10
2019-04-06T23:20:26.691Z,78.40
2019-04-06T23:23:02.299Z,80.50
2019-04-06T23:25:32.292Z,83.37
2019-04-06T23:28:21.776Z,87.77
2019-04-06T23:30:52.801Z,81.53
2019-04-06T23:33:22.771Z,96.77
2019-04-06T23:36:03.291Z,88.30
2019-04-06T23:38:39.534Z,82.83
2019-04-06T23:41:16.227Z,80.43
2019-04-06T23:43:52.292Z,76.03
2019-04-06T23:46:21.552Z,68.43
2019-04-06T23:48:50.883Z,64.67
2019-04-06T23:51:21.022Z,69.70
2019-04-06T23:54:10.575Z,68.53
2019-04-06T23:56:47.557Z,76.20
2019-04-06T23:59:49.927Z,72.73
